Terminal Aerodrome Forecast
Issued by NWS

Home | Current Version | Previous Version | Text Only | Print | Product List | Glossary On
Versions: 1 2 3 4 5 6 7 8 9 10 11 12 13 14 15 16 17 18 19 20
000
FTUS41 KBGM 301128
TAFRME
TAF
KRME 301128Z 3012/3112 10005KT P6SM OVC090
     FM301500 21012KT P6SM BKN100 BKN200
     FM301800 22012KT P6SM -SHRA BKN040 BKN100
      TEMPO 3018/3022 4SM TSRA BR BKN040CB
     FM310500 30012KT 4SM -SHRA BR OVC015
      TEMPO 3108/3112 OVC009=

USA.gov is the U.S. government's official web portal to all federal, state and local government web resources and services.